Time;durP1;ratioP1;P1;durP2;ratioP2;P2;SDS_P1;SDS_P2;PMS_P1;PMS_P2;Temp;Humidity;BMP_temperature;BMP_pressure;BME280_temperature;BME280_humidity;BME280_pressure;Samples;Min_cycle;Max_cycle;Signal;HPM_P1;HPM_P2
2022/01/29 00:00:59;;;;;;;2.50;2.30;;;;;;;14.12;42.83;98316.94;6280728;22;20167;-87
2022/01/29 00:03:31;;;;;;;2.50;2.30;;;;;;;10.26;43.22;97567.34;6282142;22;20216;-87
2022/01/29 00:05:59;;;;;;;2.50;2.30;;;;;;;15.98;43.11;98556.97;6332703;22;20178;-85
2022/01/29 00:08:25;;;;;;;2.50;2.30;;;;;;;17.11;42.98;98781.25;6282135;22;20170;-86
2022/01/29 00:10:56;;;;;;;2.37;2.17;;;;;;;14.14;42.88;98239.56;6307471;22;20179;-86
2022/01/29 00:13:23;;;;;;;2.47;2.27;;;;;;;9.61;42.85;97580.72;6307744;22;20486;-86
2022/01/29 00:15:50;;;;;;;2.47;2.27;;;;;;;15.11;43.01;98452.13;6281394;22;20482;-87
2022/01/29 00:18:16;;;;;;;2.60;2.40;;;;;;;15.85;43.32;98545.16;6281799;22;20538;-86
2022/01/29 00:20:43;;;;;;;3.47;2.40;;;;;;;18.25;43.08;98968.56;6281625;22;20178;-85
2022/01/29 00:23:13;;;;;;;2.47;2.27;;;;;;;16.41;43.51;98669.03;6278582;22;20195;-81
2022/01/29 00:25:39;;;;;;;2.57;2.37;;;;;;;16.20;43.19;98583.88;6256217;22;20166;-79
2022/01/29 00:28:06;;;;;;;2.93;2.53;;;;;;;17.45;42.93;98805.63;6281014;22;20248;-80
2022/01/29 00:30:39;;;;;;;3.37;2.20;;;;;;;18.48;43.14;98985.34;6281976;22;20586;-79
2022/01/29 00:33:06;;;;;;;2.70;2.50;;;;;;;11.59;42.89;97760.56;6334506;22;20593;-83
2022/01/29 00:35:38;;;;;;;3.33;2.63;;;;;;;10.79;42.97;97646.59;6306929;22;20197;-80
2022/01/29 00:38:07;;;;;;;2.30;2.10;;;;;;;13.35;43.28;98068.13;6280567;22;20178;-81
2022/01/29 00:40:36;;;;;;;2.63;2.20;;;;;;;11.40;42.99;97770.94;6306559;22;20166;-81
2022/01/29 00:43:06;;;;;;;2.50;2.30;;;;;;;16.16;42.99;98606.38;6334565;22;20191;-88
2022/01/29 00:45:33;;;;;;;2.37;2.17;;;;;;;18.53;43.05;98961.06;6333261;22;20174;-88
2022/01/29 00:47:59;;;;;;;2.50;2.30;;;;;;;18.53;43.04;98956.84;6305603;22;20174;-88
2022/01/29 00:50:26;;;;;;;2.20;2.00;;;;;;;14.02;42.88;98163.78;6281201;22;20198;-88
2022/01/29 00:52:55;;;;;;;2.53;2.00;;;;;;;7.21;42.99;96994.03;6280014;22;20198;-88
2022/01/29 00:55:22;;;;;;;2.60;2.40;;;;;;;7.67;43.16;97034.97;6305623;22;20506;-88
2022/01/29 00:57:48;;;;;;;2.50;2.30;;;;;;;17.92;42.77;98831.56;6280189;22;20243;-88
2022/01/29 01:00:18;;;;;;;2.50;2.30;;;;;;;8.05;42.14;97187.13;6281732;22;20181;-87
2022/01/29 01:02:45;;;;;;;2.30;2.10;;;;;;;16.38;42.92;98645.13;6306305;22;20570;-89
2022/01/29 01:05:12;;;;;;;2.50;2.30;;;;;;;18.57;42.82;98945.19;6305709;22;20170;-88
2022/01/29 01:07:44;;;;;;;2.30;2.10;;;;;;;8.08;42.75;97064.75;6282001;22;20519;-88
2022/01/29 01:10:11;;;;;;;2.37;2.17;;;;;;;16.79;42.93;98584.44;6280016;22;20208;-88
2022/01/29 01:12:41;;;;;;;2.20;2.10;;;;;;;15.53;42.83;98372.38;6279490;22;20185;-88
2022/01/29 01:15:08;;;;;;;2.50;2.30;;;;;;;8.69;43.30;97310.50;6333513;22;20170;-88
2022/01/29 01:17:35;;;;;;;3.57;2.43;;;;;;;18.63;42.93;98900.63;6305528;22;20196;-88
2022/01/29 01:20:04;;;;;;;2.33;2.13;;;;;;;15.62;43.00;98460.75;6305686;22;20663;-88
2022/01/29 01:22:35;;;;;;;2.93;2.63;;;;;;;14.54;42.85;98174.13;6279055;22;20182;-88
2022/01/29 01:25:11;;;;;;;2.47;2.27;;;;;;;8.67;42.50;97146.72;6307644;22;20528;-87
2022/01/29 01:27:44;;;;;;;2.57;2.37;;;;;;;13.58;42.64;98068.06;6332602;22;20517;-87
2022/01/29 01:30:11;;;;;;;3.23;2.33;;;;;;;8.73;42.60;97262.38;6280836;22;20174;-87
2022/01/29 01:32:40;;;;;;;2.20;1.97;;;;;;;18.65;42.58;98862.53;6280788;22;20544;-87
2022/01/29 01:35:32;;;;;;;2.43;2.23;;;;;;;18.46;42.57;98837.59;6304800;22;20178;-87
2022/01/29 01:37:59;;;;;;;2.30;2.10;;;;;;;17.56;42.79;98674.13;6288960;22;20174;-87
2022/01/29 01:40:27;;;;;;;2.90;2.50;;;;;;;18.18;42.68;98780.66;6332962;22;20170;-87
2022/01/29 01:42:59;;;;;;;2.30;2.10;;;;;;;10.50;42.66;97478.69;6305429;22;20293;-87
2022/01/29 01:45:27;;;;;;;2.23;2.03;;;;;;;10.15;42.06;97374.00;6256319;22;20486;-87
2022/01/29 01:47:55;;;;;;;2.27;2.03;;;;;;;10.27;42.33;97460.25;6280499;22;20177;-79
2022/01/29 01:50:31;;;;;;;2.30;2.10;;;;;;;17.96;42.40;98744.47;6284766;22;20178;-80
2022/01/29 01:53:03;;;;;;;2.77;2.37;;;;;;;15.93;42.48;98373.31;6306881;22;20198;-81
2022/01/29 01:55:30;;;;;;;2.83;2.63;;;;;;;18.87;42.45;98876.69;6281111;22;20650;-81
2022/01/29 01:57:57;;;;;;;2.63;2.40;;;;;;;18.89;42.44;98876.78;6305340;22;20163;-81
2022/01/29 02:00:40;;;;;;;2.70;2.37;;;;;;;17.36;42.50;98731.28;6332511;22;20159;-81
2022/01/29 02:03:10;;;;;;;2.40;2.20;;;;;;;17.43;42.16;98600.41;6282885;22;20194;-81
2022/01/29 02:05:37;;;;;;;2.50;2.27;;;;;;;12.72;42.42;97775.34;6279040;22;20237;-88
2022/01/29 02:08:04;;;;;;;2.50;2.30;;;;;;;18.92;42.37;98857.44;6252742;22;20175;-89
2022/01/29 02:10:34;;;;;;;2.80;2.50;;;;;;;17.14;42.27;98546.91;6332461;22;20174;-88
2022/01/29 02:13:04;;;;;;;2.90;2.60;;;;;;;16.82;42.42;98602.41;6331993;22;20584;-88
2022/01/29 02:15:33;;;;;;;2.40;2.20;;;;;;;10.41;42.05;97429.44;6276673;22;20550;-88
2022/01/29 02:18:04;;;;;;;2.50;2.13;;;;;;;18.92;42.31;98843.84;6305530;22;20174;-88
2022/01/29 02:20:34;;;;;;;2.53;2.20;;;;;;;18.92;42.45;98844.69;6333027;22;20174;-88
2022/01/29 02:23:03;;;;;;;2.53;2.33;;;;;;;9.75;42.44;97294.13;6306063;22;20194;-89
2022/01/29 02:25:45;;;;;;;2.30;2.10;;;;;;;14.19;42.43;98015.81;6305892;22;20718;-88
2022/01/29 02:28:17;;;;;;;2.50;2.30;;;;;;;7.91;42.12;97044.28;6282750;22;20221;-80
2022/01/29 02:30:48;;;;;;;2.57;2.37;;;;;;;15.45;42.17;98234.19;6333857;22;20201;-79
2022/01/29 02:33:33;;;;;;;2.53;2.30;;;;;;;10.23;41.88;97370.38;6259915;22;20565;-80
2022/01/29 02:36:00;;;;;;;2.63;2.40;;;;;;;18.90;42.17;98827.56;6280600;22;20560;-81
2022/01/29 02:38:34;;;;;;;2.20;2.00;;;;;;;7.70;42.02;96905.19;6306007;22;20237;-80
2022/01/29 02:41:04;;;;;;;2.53;2.33;;;;;;;10.79;41.90;97456.47;6306060;22;20170;-81
2022/01/29 02:43:36;;;;;;;2.20;2.00;;;;;;;7.57;42.15;96942.53;6281092;22;20223;-80
2022/01/29 02:48:45;;;;;;;2.60;2.30;;;;;;;9.84;42.47;97350.84;6283258;22;20196;-80
2022/01/29 02:51:32;;;;;;;2.73;2.23;;;;;;;16.72;42.21;98435.06;6280304;22;20201;-80
2022/01/29 02:53:59;;;;;;;2.60;2.40;;;;;;;9.16;42.27;97112.78;6332133;22;20251;-80
2022/01/29 02:56:26;;;;;;;2.50;2.30;;;;;;;17.26;42.09;98525.66;6332652;22;20178;-81
2022/01/29 02:58:58;;;;;;;2.20;2.00;;;;;;;18.94;42.49;98804.03;6280323;22;20645;-80
2022/01/29 03:01:28;;;;;;;2.37;2.17;;;;;;;18.92;42.36;98805.63;6332194;22;20205;-82
2022/01/29 03:04:00;;;;;;;2.20;2.00;;;;;;;15.44;42.41;98188.50;6331475;22;20225;-80
2022/01/29 03:06:26;;;;;;;2.70;2.47;;;;;;;18.18;42.21;98659.41;6304996;22;20232;-80
2022/01/29 03:09:03;;;;;;;2.50;2.30;;;;;;;8.31;42.13;96926.31;6307169;22;20216;-81
2022/01/29 03:11:33;;;;;;;2.73;2.40;;;;;;;12.58;42.43;97810.47;6281023;22;20197;-79
2022/01/29 03:13:59;;;;;;;2.50;2.30;;;;;;;12.25;42.43;97625.13;6254001;22;20199;-81
2022/01/29 03:16:26;;;;;;;2.37;2.17;;;;;;;11.22;42.13;97464.44;6305712;22;20506;-80
2022/01/29 03:18:53;;;;;;;2.57;2.37;;;;;;;14.91;42.17;98100.63;6279134;22;20174;-80
2022/01/29 03:21:20;;;;;;;2.37;2.17;;;;;;;7.64;42.03;96943.09;6305108;22;20243;-81
2022/01/29 03:24:00;;;;;;;2.40;2.20;;;;;;;15.42;42.39;98147.03;6333579;22;20198;-81
2022/01/29 03:26:27;;;;;;;2.37;2.17;;;;;;;12.35;42.31;97608.97;6304187;22;20629;-88
2022/01/29 03:28:56;;;;;;;2.37;2.17;;;;;;;12.83;42.05;97803.81;6331811;22;20174;-88
2022/01/29 03:31:26;;;;;;;2.07;1.97;;;;;;;15.36;42.42;98134.81;6305706;22;20194;-88
2022/01/29 03:33:54;;;;;;;2.50;2.30;;;;;;;18.57;42.13;98700.78;6305416;22;20267;-88
2022/01/29 03:36:28;;;;;;;2.67;2.47;;;;;;;16.67;42.44;98406.84;6304553;22;20231;-88
2022/01/29 03:38:56;;;;;;;2.33;2.13;;;;;;;16.75;41.85;98382.81;6279208;22;20243;-88
2022/01/29 03:41:23;;;;;;;2.77;2.20;;;;;;;18.86;42.51;98759.41;6304214;22;20231;-88
2022/01/29 03:43:54;;;;;;;2.30;2.10;;;;;;;18.86;42.57;98737.34;6279018;22;20254;-88
2022/01/29 03:46:25;;;;;;;2.93;2.10;;;;;;;11.96;42.32;97674.31;6281830;22;20167;-89
2022/01/29 03:48:52;;;;;;;2.40;2.20;;;;;;;18.86;42.39;98719.53;6305337;22;20182;-88
2022/01/29 03:51:19;;;;;;;2.70;2.30;;;;;;;18.86;42.63;98719.53;6304696;22;20202;-88
2022/01/29 03:53:47;;;;;;;2.30;2.10;;;;;;;18.51;42.48;98672.41;6304604;22;20202;-88
2022/01/29 03:56:14;;;;;;;3.10;2.20;;;;;;;17.34;42.39;98475.31;6331797;22;20212;-88
2022/01/29 03:58:41;;;;;;;2.30;2.10;;;;;;;17.98;42.42;98549.63;6305248;22;20178;-83
2022/01/29 04:01:07;;;;;;;2.50;2.30;;;;;;;17.35;43.10;98582.13;6306835;22;20189;-80
2022/01/29 04:03:40;;;;;;;2.30;2.10;;;;;;;13.53;42.49;97815.25;6305257;22;20190;-80
2022/01/29 04:06:14;;;;;;;2.37;2.03;;;;;;;16.30;42.18;98293.69;6335111;22;20190;-80
2022/01/29 04:08:42;;;;;;;2.50;2.27;;;;;;;18.15;42.32;98587.13;6334390;22;20490;-80
2022/01/29 04:11:13;;;;;;;3.20;2.53;;;;;;;18.29;42.42;98618.47;6307226;22;20608;-79
2022/01/29 04:13:49;;;;;;;2.30;2.10;;;;;;;17.83;42.39;98526.69;6282636;22;20200;-81
2022/01/29 04:16:20;;;;;;;2.20;2.00;;;;;;;18.94;42.39;98714.88;6306036;22;20622;-80
2022/01/29 04:18:49;;;;;;;2.23;2.03;;;;;;;17.14;42.42;98395.38;6332704;22;20660;-80
2022/01/29 04:21:17;;;;;;;2.60;2.40;;;;;;;18.94;42.35;98816.78;6306607;22;20251;-80
2022/01/29 04:23:44;;;;;;;2.57;2.33;;;;;;;18.94;42.35;98709.78;6279348;22;20209;-81
2022/01/29 04:26:13;;;;;;;2.40;2.20;;;;;;;18.19;42.44;98583.97;6331995;22;20159;-80
2022/01/29 04:28:43;;;;;;;3.33;2.47;;;;;;;13.29;42.70;97760.66;6305673;22;20174;-81
2022/01/29 04:31:17;;;;;;;2.23;2.07;;;;;;;18.94;42.32;98703.03;6306314;22;20191;-80
2022/01/29 04:33:46;;;;;;;2.50;2.30;;;;;;;18.94;42.23;98695.38;6283469;22;20217;-80
2022/01/29 04:36:13;;;;;;;2.47;2.27;;;;;;;10.13;42.43;97227.44;6307519;22;20590;-80
2022/01/29 04:38:48;;;;;;;2.30;2.10;;;;;;;10.94;41.99;97421.47;6308204;22;20178;-79
2022/01/29 04:41:17;;;;;;;2.27;2.07;;;;;;;14.00;42.55;97821.69;6335108;22;20196;-80
2022/01/29 04:43:47;;;;;;;2.50;2.30;;;;;;;14.43;42.59;97898.59;6307310;22;20198;-80
2022/01/29 04:46:16;;;;;;;3.03;2.10;;;;;;;14.52;42.67;97973.41;6307208;22;20190;-80
2022/01/29 04:48:43;;;;;;;2.50;2.30;;;;;;;16.14;42.60;98208.19;6257902;22;20165;-80
2022/01/29 04:51:13;;;;;;;2.30;2.10;;;;;;;10.14;41.95;97262.69;6307371;22;20185;-80
2022/01/29 04:53:42;;;;;;;2.40;2.20;;;;;;;17.86;42.53;98511.59;6280869;22;20574;-81
2022/01/29 04:56:12;;;;;;;2.50;2.30;;;;;;;17.65;42.81;98481.50;6306504;22;20665;-80
2022/01/29 04:58:41;;;;;;;2.63;2.40;;;;;;;15.70;42.34;98183.44;6334171;22;20182;-79
2022/01/29 05:01:13;;;;;;;2.60;2.40;;;;;;;14.93;42.67;98002.94;6307106;22;20181;-81
2022/01/29 05:03:40;;;;;;;2.30;2.10;;;;;;;8.06;42.60;96795.22;6333099;22;20198;-82
2022/01/29 05:06:09;;;;;;;2.30;2.10;;;;;;;17.81;42.78;98499.41;6334253;22;20209;-80
2022/01/29 05:08:37;;;;;;;2.90;2.47;;;;;;;15.91;43.05;98162.81;6333282;22;20610;-81
2022/01/29 05:11:10;;;;;;;2.40;2.20;;;;;;;7.55;42.94;96886.56;6283443;22;20166;-81
2022/01/29 05:13:39;;;;;;;2.47;2.27;;;;;;;10.01;42.79;97199.78;6305512;22;20560;-80
2022/01/29 05:16:28;;;;;;;2.10;1.90;;;;;;;18.73;42.96;98657.59;6281135;22;20181;-79
2022/01/29 05:27:18;;;;;;;2.30;2.10;;;;;;;18.67;43.01;98653.03;6311257;22;20174;-80
2022/01/29 05:29:52;;;;;;;2.07;1.90;;;;;;;14.22;43.04;97871.94;6308927;22;20169;-79
2022/01/29 05:32:22;;;;;;;2.50;2.30;;;;;;;9.15;42.73;97055.03;6306621;22;20194;-81
2022/01/29 05:34:48;;;;;;;2.20;2.00;;;;;;;14.29;43.40;97886.75;6333700;22;20193;-80
2022/01/29 05:37:35;;;;;;;2.40;2.20;;;;;;;13.27;43.26;97887.53;6288648;22;20170;-80
2022/01/29 05:40:02;;;;;;;2.40;2.20;;;;;;;12.35;43.28;97629.97;6280551;22;20179;-80
2022/01/29 05:42:29;;;;;;;2.77;2.10;;;;;;;18.05;43.10;98552.63;6334077;22;20174;-81
2022/01/29 05:44:55;;;;;;;2.47;2.27;;;;;;;11.38;43.06;97442.94;6332729;22;20194;-80
2022/01/29 05:47:22;;;;;;;2.60;2.40;;;;;;;18.61;43.18;98667.97;6334347;22;20571;-81
2022/01/29 05:49:49;;;;;;;2.30;2.10;;;;;;;16.22;42.75;98251.75;6306140;22;20197;-80
2022/01/29 05:52:15;;;;;;;2.40;2.20;;;;;;;18.60;43.07;98661.13;6281134;22;20239;-80
2022/01/29 05:54:42;;;;;;;2.30;2.10;;;;;;;17.29;43.35;98431.00;6280292;22;20275;-80
2022/01/29 05:57:09;;;;;;;2.00;1.90;;;;;;;16.01;43.07;98205.69;6280548;22;20182;-81
2022/01/29 05:59:36;;;;;;;2.30;2.10;;;;;;;18.58;43.34;98649.97;6306776;22;20669;-80
2022/01/29 06:02:05;;;;;;;1.97;1.83;;;;;;;18.58;43.51;98651.59;6332368;22;20262;-77
2022/01/29 06:04:32;;;;;;;2.07;1.90;;;;;;;16.68;43.23;98314.72;6331577;22;20661;-80
2022/01/29 06:06:58;;;;;;;1.93;1.73;;;;;;;17.80;43.23;98511.25;6332176;22;20265;-80
2022/01/29 06:09:25;;;;;;;2.07;1.97;;;;;;;18.17;42.98;98576.25;6332458;22;20213;-80
2022/01/29 06:11:51;;;;;;;2.50;2.30;;;;;;;18.55;43.59;98648.88;6331763;22;20222;-80
2022/01/29 06:14:18;;;;;;;2.90;2.33;;;;;;;17.34;43.50;98439.75;6331270;22;20226;-80
2022/01/29 06:16:45;;;;;;;2.23;2.10;;;;;;;17.12;43.56;98409.69;6279053;22;20657;-82
2022/01/29 06:19:11;;;;;;;2.33;2.13;;;;;;;17.02;43.46;98406.50;6304913;22;20206;-81
2022/01/29 06:21:38;;;;;;;2.13;2.03;;;;;;;18.54;43.61;98644.59;6253479;22;20204;-80
2022/01/29 06:24:05;;;;;;;2.13;2.00;;;;;;;16.18;43.56;98336.94;6310330;22;20221;-87
2022/01/29 06:26:32;;;;;;;2.27;2.07;;;;;;;16.48;43.20;98288.88;6280340;22;20178;-86
2022/01/29 06:28:59;;;;;;;2.13;2.00;;;;;;;18.28;43.74;98599.75;6280547;22;20174;-86
2022/01/29 06:31:26;;;;;;;2.30;2.00;;;;;;;17.74;43.81;98494.78;6304348;22;20283;-86
2022/01/29 06:33:52;;;;;;;2.20;2.00;;;;;;;17.47;43.33;98462.63;6262675;22;20221;-86
2022/01/29 06:36:19;;;;;;;2.40;2.20;;;;;;;16.77;43.57;98340.66;6270892;22;20171;-88
2022/01/29 06:38:46;;;;;;;2.20;2.00;;;;;;;17.59;43.73;98476.94;6272950;22;20653;-86
2022/01/29 06:41:12;;;;;;;2.27;2.07;;;;;;;17.64;43.54;98495.88;6276648;22;20274;-86
2022/01/29 06:43:39;;;;;;;2.23;2.00;;;;;;;17.51;43.29;98437.50;6277731;22;20210;-85
2022/01/29 06:46:06;;;;;;;2.77;2.33;;;;;;;16.47;43.24;98299.84;6252436;22;20171;-86
2022/01/29 06:48:32;;;;;;;2.40;2.20;;;;;;;17.52;43.68;98479.91;6278374;22;20171;-86
2022/01/29 06:50:59;;;;;;;2.40;2.20;;;;;;;17.25;43.89;98409.63;6278220;22;20195;-86
2022/01/29 06:53:26;;;;;;;2.40;2.20;;;;;;;16.56;43.44;98291.13;6277624;22;20199;-85
2022/01/29 06:55:52;;;;;;;2.13;2.00;;;;;;;17.42;43.55;98449.63;6277637;22;20232;-85
2022/01/29 06:58:19;;;;;;;2.77;2.23;;;;;;;17.81;43.67;98507.06;6277681;22;20170;-83
2022/01/29 07:01:06;;;;;;;2.30;2.10;;;;;;;16.85;43.83;98338.56;6282852;22;20258;-85
2022/01/29 07:03:33;;;;;;;3.53;2.17;;;;;;;16.80;43.58;98347.56;6278384;22;20193;-85
2022/01/29 07:06:00;;;;;;;2.13;2.00;;;;;;;17.67;44.02;98480.81;6278579;22;20232;-85
2022/01/29 07:08:26;;;;;;;2.40;2.10;;;;;;;16.74;43.69;98350.63;6278625;22;20175;-86
2022/01/29 07:10:53;;;;;;;2.20;2.00;;;;;;;17.34;43.77;98427.06;6278717;22;20242;-87
2022/01/29 07:13:21;;;;;;;3.47;2.20;;;;;;;14.64;44.16;97948.00;6279228;22;20232;-85
2022/01/29 07:15:47;;;;;;;3.37;2.40;;;;;;;16.14;43.81;98231.00;6279694;22;20242;-86
2022/01/29 07:18:14;;;;;;;2.53;2.10;;;;;;;16.38;44.08;98246.84;6277069;22;20155;-86
2022/01/29 07:20:41;;;;;;;2.63;2.20;;;;;;;17.84;43.79;98508.13;6301209;22;20175;-86
2022/01/29 07:23:07;;;;;;;3.20;2.23;;;;;;;17.88;43.75;98496.44;6248270;22;20508;-87
2022/01/29 07:25:34;;;;;;;2.77;2.13;;;;;;;16.64;43.88;98279.75;6250473;22;20591;-85
2022/01/29 07:28:01;;;;;;;3.20;2.40;;;;;;;18.24;43.94;98557.97;6253014;22;20552;-84
2022/01/29 07:30:27;;;;;;;7.23;2.53;;;;;;;17.70;43.56;98465.75;6277503;22;20195;-84
2022/01/29 07:32:54;;;;;;;5.20;2.20;;;;;;;17.84;44.15;98495.41;6227253;22;20788;-86
2022/01/29 07:35:21;;;;;;;3.23;2.13;;;;;;;17.87;43.79;98510.84;6252411;22;20159;-84
2022/01/29 07:37:51;;;;;;;2.43;2.23;;;;;;;18.08;43.63;98544.28;6253184;22;20189;-84
2022/01/29 07:40:18;;;;;;;3.30;2.67;;;;;;;17.60;43.62;98463.44;6252410;22;20953;-86
2022/01/29 07:42:44;;;;;;;4.03;2.53;;;;;;;18.02;43.78;98531.19;6252001;22;20234;-83
2022/01/29 07:45:11;;;;;;;5.27;2.43;;;;;;;17.90;43.77;98521.19;6252413;22;20571;-86
2022/01/29 07:47:37;;;;;;;2.70;2.30;;;;;;;18.39;43.80;98587.69;6251511;22;20257;-85
2022/01/29 07:50:04;;;;;;;5.67;2.73;;;;;;;18.33;43.81;98582.22;6277178;22;20660;-86
2022/01/29 07:52:32;;;;;;;2.40;2.07;;;;;;;17.99;43.78;98521.75;6252581;22;20215;-84
2022/01/29 07:55:03;;;;;;;2.80;2.40;;;;;;;17.81;43.93;98487.59;6253566;22;20194;-86
2022/01/29 07:57:30;;;;;;;2.30;2.03;;;;;;;17.70;43.66;98465.75;6227318;22;20171;-86
2022/01/29 07:59:57;;;;;;;4.43;2.60;;;;;;;18.17;43.98;98535.53;6252072;22;20207;-86
2022/01/29 08:02:23;;;;;;;2.87;2.00;;;;;;;17.80;43.75;98492.59;6252520;22;20533;-86
2022/01/29 08:04:50;;;;;;;2.57;2.27;;;;;;;17.75;43.94;98450.75;6251870;22;20198;-88
2022/01/29 08:07:17;;;;;;;2.63;2.20;;;;;;;16.42;43.74;98216.69;6226743;22;20254;-89
2022/01/29 08:09:43;;;;;;;2.63;2.10;;;;;;;18.01;43.86;98488.75;6252463;22;20183;-86
2022/01/29 08:12:10;;;;;;;3.83;2.30;;;;;;;18.30;43.97;98562.56;6254495;22;20233;-85
2022/01/29 08:14:37;;;;;;;2.40;2.17;;;;;;;17.86;44.13;98465.84;6229264;22;20226;-87
2022/01/29 08:17:03;;;;;;;3.50;2.40;;;;;;;18.20;43.52;98533.16;6253800;22;20178;-86
2022/01/29 08:19:30;;;;;;;2.37;2.17;;;;;;;17.73;43.89;98457.41;6254170;22;20201;-88
2022/01/29 08:21:57;;;;;;;2.73;2.43;;;;;;;17.64;43.94;98429.78;6253704;22;20223;-85
2022/01/29 08:24:23;;;;;;;3.50;2.10;;;;;;;17.21;43.46;98361.97;6264697;22;21034;-85
2022/01/29 08:26:50;;;;;;;3.90;2.40;;;;;;;17.59;43.98;98426.09;6277370;22;20251;-86
2022/01/29 08:29:16;;;;;;;2.67;2.43;;;;;;;17.63;43.97;98430.59;6278826;22;20284;-87
2022/01/29 08:31:43;;;;;;;4.20;2.60;;;;;;;18.27;43.49;98542.91;6279616;22;20186;-86
2022/01/29 08:34:09;;;;;;;2.40;2.17;;;;;;;18.05;43.72;98499.19;6278773;22;20201;-84
2022/01/29 08:36:36;;;;;;;2.33;2.00;;;;;;;17.75;43.65;98459.28;6279131;22;20634;-85
2022/01/29 08:39:03;;;;;;;2.33;2.10;;;;;;;17.92;43.57;98478.06;6279015;22;20626;-87
2022/01/29 08:41:30;;;;;;;2.90;2.40;;;;;;;17.70;43.81;98488.63;6278843;22;20171;-87
2022/01/29 09:05:24;;;;;;;2.33;1.90;;;;;;;15.30;43.77;98019.59;6208669;22;20805;-86
2022/01/29 09:07:51;;;;;;;2.47;2.20;;;;;;;14.77;43.65;97963.16;6279044;22;20202;-85
2022/01/29 09:10:18;;;;;;;2.27;2.07;;;;;;;17.14;43.76;98311.56;6254040;22;20205;-86
2022/01/29 09:12:44;;;;;;;2.10;1.90;;;;;;;17.15;43.89;98323.50;6279160;22;20194;-87
2022/01/29 09:15:11;;;;;;;2.20;2.00;;;;;;;16.99;43.51;98294.56;6253376;22;20269;-85
2022/01/29 09:17:39;;;;;;;2.67;2.27;;;;;;;17.86;43.67;98445.50;6253601;22;20205;-87
2022/01/29 09:20:10;;;;;;;3.20;2.40;;;;;;;17.59;43.71;98390.50;6254096;22;20518;-86
2022/01/29 09:22:37;;;;;;;2.63;2.10;;;;;;;17.85;43.92;98453.03;6303811;22;20201;-85
2022/01/29 09:25:04;;;;;;;2.37;2.13;;;;;;;17.56;43.66;98381.84;6253317;22;20297;-86
2022/01/29 09:27:31;;;;;;;2.53;2.10;;;;;;;17.90;43.88;98451.66;6254597;22;20187;-86
2022/01/29 09:29:57;;;;;;;3.63;2.20;;;;;;;18.04;43.79;98487.28;6278716;22;20200;-87
2022/01/29 09:32:24;;;;;;;2.13;1.93;;;;;;;17.65;43.82;98397.63;6253249;22;20166;-85
2022/01/29 09:34:51;;;;;;;2.43;2.13;;;;;;;17.75;43.87;98427.88;6253561;22;20233;-86
2022/01/29 09:37:17;;;;;;;2.57;1.83;;;;;;;18.33;43.91;98528.78;6254044;22;20406;-86
2022/01/29 09:39:44;;;;;;;2.10;1.90;;;;;;;18.17;43.75;98499.03;6279044;22;20257;-87
2022/01/29 09:42:11;;;;;;;2.00;1.70;;;;;;;18.08;43.72;98494.28;6253098;22;20697;-86
2022/01/29 09:44:37;;;;;;;2.43;2.00;;;;;;;17.12;43.71;98313.16;6252560;22;20203;-86
2022/01/29 09:47:05;;;;;;;1.97;1.87;;;;;;;17.01;43.55;98293.88;6278057;22;20724;-86
2022/01/29 09:49:32;;;;;;;2.23;2.03;;;;;;;18.58;43.97;98565.06;6253458;22;20194;-84
2022/01/29 09:51:59;;;;;;;2.53;2.00;;;;;;;17.73;43.77;98399.81;6253316;22;20213;-86
2022/01/29 09:54:25;;;;;;;2.53;2.23;;;;;;;17.31;43.46;98358.28;6258042;22;20229;-89
2022/01/29 10:18:22;;;;;;;2.63;1.90;;;;;;;15.73;43.77;98052.75;6312442;22;20241;-86
2022/01/29 10:20:50;;;;;;;2.40;2.20;;;;;;;14.35;43.82;97786.91;6257353;22;20253;-85
2022/01/29 10:23:16;;;;;;;2.70;2.10;;;;;;;18.09;43.60;98437.53;6283350;22;20222;-86
2022/01/29 10:25:44;;;;;;;2.10;1.90;;;;;;;18.55;43.61;98527.59;6260070;22;20633;-88
2022/01/29 10:28:18;;;;;;;3.37;2.13;;;;;;;17.95;43.66;98407.88;6260080;22;20570;-84
2022/01/29 10:30:48;;;;;;;2.57;1.87;;;;;;;18.58;43.43;98509.03;6257958;22;20190;-89
2022/01/29 10:33:22;;;;;;;2.33;2.13;;;;;;;17.27;43.78;98280.16;6335876;22;20194;-84
2022/01/29 10:36:05;;;;;;;2.70;2.10;;;;;;;17.51;43.70;98340.03;6310706;22;20247;-86
2022/01/29 10:38:55;;;;;;;2.03;1.83;;;;;;;17.29;43.53;98271.81;6259672;22;20189;-85
2022/01/29 10:41:30;;;;;;;2.10;1.90;;;;;;;18.12;43.61;98417.34;6283892;22;20211;-87
2022/01/29 10:44:16;;;;;;;2.33;1.80;;;;;;;18.61;43.43;98493.94;6283955;22;20189;-81
2022/01/29 10:46:50;;;;;;;2.20;1.97;;;;;;;18.61;43.66;98497.38;6309037;22;20692;-84
2022/01/29 10:49:30;;;;;;;7.03;2.10;;;;;;;17.93;43.38;98384.06;6336811;22;20174;-84
2022/01/29 10:52:07;;;;;;;2.33;2.10;;;;;;;17.64;43.81;98319.59;6258650;22;20178;-82
2022/01/29 10:54:35;;;;;;;4.37;2.00;;;;;;;17.73;43.50;98328.63;6309028;22;20224;-85
2022/01/29 10:57:09;;;;;;;1.90;1.80;;;;;;;17.75;43.56;98357.56;6282599;22;20190;-84
2022/01/29 10:59:38;;;;;;;2.47;1.83;;;;;;;16.67;43.71;98142.06;6309655;22;20538;-86
2022/01/29 11:02:08;;;;;;;2.57;1.97;;;;;;;18.38;43.56;98444.28;6259229;22;20170;-86
2022/01/29 11:04:37;;;;;;;2.53;1.97;;;;;;;17.87;43.78;98365.00;6281764;22;20281;-85
2022/01/29 11:07:09;;;;;;;2.23;1.93;;;;;;;18.19;43.82;98416.03;6282440;22;20864;-84
2022/01/29 11:09:37;;;;;;;1.80;1.70;;;;;;;18.38;43.44;98444.28;6285790;22;20681;-85
2022/01/29 11:12:04;;;;;;;2.20;2.00;;;;;;;18.18;43.52;98409.22;6258125;22;20548;-84
2022/01/29 11:14:31;;;;;;;1.80;1.70;;;;;;;17.64;43.68;98325.56;6257402;22;20267;-84
2022/01/29 11:16:58;;;;;;;2.27;2.07;;;;;;;17.77;43.38;98339.88;6257202;22;20656;-86
2022/01/29 11:19:24;;;;;;;2.60;1.90;;;;;;;17.89;43.42;98360.91;6257205;22;20213;-84
2022/01/29 11:21:52;;;;;;;2.00;1.80;;;;;;;17.98;43.51;98377.56;6283007;22;20549;-85
2022/01/29 11:24:21;;;;;;;2.23;1.67;;;;;;;16.53;43.43;98136.19;6256755;22;20213;-81
2022/01/29 11:26:47;;;;;;;2.13;1.90;;;;;;;17.79;43.95;98350.97;6284678;22;20202;-84
2022/01/29 11:29:29;;;;;;;3.33;1.87;;;;;;;18.56;43.62;98475.00;6283789;22;20632;-83
2022/01/29 11:32:20;;;;;;;2.47;1.93;;;;;;;18.55;43.52;98475.78;6309780;22;20174;-85
2022/01/29 11:34:56;;;;;;;1.87;1.77;;;;;;;18.55;43.96;98474.13;6335664;22;20221;-85
2022/01/29 11:37:36;;;;;;;2.13;1.80;;;;;;;17.97;43.71;98388.50;6335429;22;20219;-85
2022/01/29 11:40:30;;;;;;;3.93;2.07;;;;;;;18.12;43.75;98402.09;6285024;22;20158;-86
2022/01/29 11:42:57;;;;;;;2.20;1.90;;;;;;;18.54;43.59;98466.41;6288990;22;20178;-84
2022/01/29 11:45:42;;;;;;;3.33;2.20;;;;;;;18.53;43.80;98465.50;6312115;22;20174;-86
2022/01/29 11:48:34;;;;;;;2.00;1.80;;;;;;;18.27;43.93;98412.28;6310403;22;20180;-84
2022/01/29 11:51:02;;;;;;;2.23;2.03;;;;;;;17.93;43.46;98371.34;6311642;22;20219;-86
2022/01/29 11:54:01;;;;;;;3.10;2.00;;;;;;;18.11;43.68;98374.03;6259387;22;20194;-84
2022/01/29 11:56:29;;;;;;;2.30;1.70;;;;;;;17.94;44.01;98342.56;6228387;22;20227;-85
2022/01/29 11:59:17;;;;;;;3.30;1.90;;;;;;;18.51;43.67;98435.69;6286008;22;20571;-84
2022/01/29 12:01:47;;;;;;;2.57;2.10;;;;;;;17.68;43.91;98296.13;6309437;22;20181;-86
2022/01/29 12:04:16;;;;;;;3.87;1.90;;;;;;;17.52;43.65;98263.00;6281703;22;20297;-84
2022/01/29 12:07:09;;;;;;;1.90;1.80;;;;;;;18.51;43.70;98430.59;6282825;22;20178;-86
2022/01/29 12:09:48;;;;;;;1.80;1.70;;;;;;;18.27;43.96;98391.91;6337188;22;20151;-86
2022/01/29 12:12:24;;;;;;;2.43;1.97;;;;;;;18.31;44.08;98381.09;6286328;22;20246;-85
2022/01/29 12:14:55;;;;;;;3.17;2.00;;;;;;;17.39;43.94;98223.31;6262666;22;20251;-85
2022/01/29 12:17:56;;;;;;;2.00;1.90;;;;;;;18.50;43.70;98413.56;6260199;22;20182;-81
2022/01/29 12:20:24;;;;;;;2.07;1.80;;;;;;;16.45;43.96;98068.88;6286978;22;20751;-86
2022/01/29 12:23:01;;;;;;;3.30;2.17;;;;;;;18.27;43.71;98378.31;6263382;22;20221;-85
2022/01/29 12:25:28;;;;;;;4.17;2.40;;;;;;;17.85;44.63;98311.53;6261419;22;20206;-86
2022/01/29 12:28:03;;;;;;;6.00;2.27;;;;;;;16.95;44.09;98125.94;6259767;22;20235;-86
2022/01/29 12:30:37;;;;;;;6.03;2.03;;;;;;;17.84;44.25;98268.22;6262253;22;20158;-86
2022/01/29 12:33:13;;;;;;;4.53;1.93;;;;;;;18.48;44.11;98376.97;6260839;22;20170;-85
2022/01/29 12:35:41;;;;;;;2.17;1.97;;;;;;;18.13;43.98;98321.56;6261403;22;20151;-87
2022/01/29 12:38:10;;;;;;;5.07;2.40;;;;;;;17.80;44.04;98269.69;6310747;22;20174;-84
2022/01/29 12:40:49;;;;;;;2.40;1.90;;;;;;;16.42;44.14;98028.97;6307337;22;20171;-87